700  
UXUS97 KREV 131540  
SRGREV  
 
SOARING FORECAST  
NATIONAL WEATHER SERVICE - RENO NV  
700 AM PST THU DEC 13 2018  
 
THIS SOARING FORECAST IS FOR THE EASTERN SIERRA AND WESTERN NEVADA  
WITH SPECIFIC INDICES FOR THE GREATER RENO AREA.  
 
THIS FORECAST IS PREPARED DAILY BY 700 AM AND IS NOT UPDATED.  
 
FOR CURRENT FLIGHT CONDITIONS...FORECASTS...AND ADVISORIES...ACCESS  
YOUR LOCAL BRIEFING OUTLET OR FLIGHT SERVICE STATION.  
 
*******************************************************************  
FORECASTED LOCAL INDICES FOR RENO: TODAY YESTERDAY  
FORECASTED MAX TEMP AT RENO (DEG F)..... 49 52  
FORECASTED TRIGGER TEMPERATURE (DEG F).. 53 48  
EXCEEDED YESTERDAY BY 1255 PM PST  
FORECASTED MAXIMUM ALTITUDE (FT MSL).... 7500 10500  
FORECASTED SOARING INDEX (FPM).......... 225 465  
FORECASTED K-INDEX.........VALID 18Z.... -2 -12  
FORECASTED K-INDEX.........VALID 00Z.... -1 -6  
FORECASTED LIFTED INDEX....VALID 18Z.... 7 6  
FORECASTED LIFTED INDEX....VALID 00Z.... 7 6  
 
AFTERNOON WINDS ALOFT FORECAST  
MSL (FT) WIND/TEMP  
9000 2107/+04  
10000 2308/+02  
12000 2810/-02  
14000 2612/-06  
16000 2614/-10  
18000 2621/-15  
24000 2734/-26  
30000 2547/-41  
34000 2553/-51  
39000 2544/-62  
 
SLIDE MOUNTAIN DATA:  
DATE TIME TEMP DEWPT RH WIND (MPH)  
(F) (F) | DIR SPEED GUST  
2018-12-13 05:20 31 19 49 | 293 9 13  
2018-12-13 05:00 30 18 48 | 284 9 13  
2018-12-13 04:50 30 15 41 | 254 13 18  
2018-12-13 04:30 30 15 40 | 254 12 17  
 
SIERRA CREST 8700 FT DATA:  
DATE TIME TEMP RH WIND  
DIR SPEED GUST  
2018-12-13 0600 34 48 225 9 11  
2018-12-13 0545 34 46 220 9 14  
2018-12-13 0530 34 41 219 14 16  
2018-12-13 0515 34 37 220 14 17  
 
RENO TAF FORECAST:  
KRNO 131121Z 1312/1412 VRB04KT P6SM FEW150 BKN250  
FM140800 18008KT P6SM BKN200  
 
CARSON CITY TAF FORECAST:  
KCXP 131121Z 1312/1412 VRB04KT P6SM FEW140 BKN250  
FM132100 09008KT P6SM FEW250  
FM140200 VRB04KT P6SM BKN200  
FM140800 22009KT P6SM BKN200  
 
OUTLOOK FOR THE RENO-CARSON CITY-MINDEN AREA:   
FRIDAY
 
MOSTLY CLOUDY. HIGHS 50 TO 55. SOUTH WINDS 10 TO 15 MPH  
INCREASING TO 20 TO 30 MPH WITH GUSTS UP TO 55 MPH IN THE  
AFTERNOON.  
 
SUNRISE AND SUNSET  
DECEMBER 13 2018......SUNRISE 711 AM PST SUNSET 436 PM PST  
DECEMBER 14 2018......SUNRISE 712 AM PST SUNSET 436 PM PST  
 
CLICK HERE TO GO TO PREVIOUS BULLETINS.

The Nexlab NV Page
The Nexlab CA Page Main Text Page